Main page
METAR-TAF:

METAR-TAF

Airports :

Capo Mele

Andora, Italy

latitude: 43-57N, longitude: 008-10E, elevation: 220 m

Current weather observation

The report was made 55 minutes ago, at 17:55 UTC
Wind 8 kt from the South/Southwest
Temperature 19°C
Humidity 73%
Pressure 1016 hPa
Visibility 10 km or more
Few clouds at a height of 2500 ft, Towering cumulus.

METAR: LIMU 241755Z 20008KT 9999 FEW025TCU 19/14 Q1016 RMK BKN SCT060 QUK 2 QUL 1 SE VIS MAR 20 KM VIS MIN 9999

Time: 20:50 (18:50 UTC)


TAF: missing

Weather observations and forecasts of more than 4000 airports (METAR and TAF reports).

The available stations are represented by yellow and red dots on the map.

Hover mouse over dot to see the name of the station.

Then click to see weather observations and forecasts.

To change the map : click on the green buttons with a black cross to zoom in, on the green button with a dash to zoom out, or on the green arrows for adjacent maps.


METAR-TAF: